createdAt,value
2022-08-18T00:00:15.308Z,99.90
2022-08-18T00:03:01.154Z,99.90
2022-08-18T00:05:43.428Z,99.90
2022-08-18T00:08:13.976Z,99.90
2022-08-18T00:10:44.661Z,99.90
2022-08-18T00:13:14.752Z,99.90
2022-08-18T00:15:49.341Z,99.90
2022-08-18T00:18:19.828Z,99.90
2022-08-18T00:20:52.586Z,99.90
2022-08-18T00:23:23.471Z,99.90
2022-08-18T00:25:53.517Z,99.90
2022-08-18T00:28:24.099Z,99.90
2022-08-18T00:30:54.472Z,99.90
2022-08-18T00:33:25.068Z,99.90
2022-08-18T00:35:57.835Z,99.90
2022-08-18T00:38:27.908Z,99.90
2022-08-18T00:40:59.780Z,99.90
2022-08-18T00:43:42.604Z,99.90
2022-08-18T00:46:19.498Z,99.90
2022-08-18T00:48:50.405Z,99.90
2022-08-18T00:51:32.816Z,99.90
2022-08-18T00:54:11.688Z,99.90
2022-08-18T00:56:47.624Z,99.90
2022-08-18T00:59:26.639Z,99.90
2022-08-18T01:02:02.615Z,99.90
2022-08-18T01:04:42.281Z,99.90
2022-08-18T01:07:23.435Z,99.90
2022-08-18T01:09:55.054Z,99.90
2022-08-18T01:12:44.301Z,99.90
2022-08-18T01:15:28.824Z,99.90
2022-08-18T01:18:14.796Z,99.90
2022-08-18T01:21:07.015Z,99.90
2022-08-18T01:23:41.227Z,99.90
2022-08-18T01:26:09.533Z,99.90
2022-08-18T01:28:44.699Z,99.90
2022-08-18T01:31:32.811Z,99.90
2022-08-18T01:34:03.492Z,99.90
2022-08-18T01:36:37.479Z,99.90
2022-08-18T01:39:15.637Z,99.90
2022-08-18T01:42:05.656Z,99.90
2022-08-18T01:44:35.709Z,99.90
2022-08-18T01:47:06.513Z,99.90
2022-08-18T01:49:36.529Z,99.90
2022-08-18T01:52:08.272Z,99.90
2022-08-18T01:54:41.168Z,99.90
2022-08-18T01:57:14.595Z,99.90
2022-08-18T01:59:45.857Z,99.90
2022-08-18T02:02:24.387Z,99.90
2022-08-18T02:04:58.453Z,99.90
2022-08-18T02:07:35.993Z,99.90
2022-08-18T02:10:12.631Z,99.90
2022-08-18T02:12:46.888Z,99.90
2022-08-18T02:15:17.123Z,99.90
2022-08-18T02:17:49.459Z,99.90
2022-08-18T02:20:21.929Z,99.90
2022-08-18T02:22:52.953Z,99.90
2022-08-18T02:25:25.869Z,99.90
2022-08-18T02:27:55.873Z,99.90
2022-08-18T02:30:26.082Z,99.90
2022-08-18T02:32:56.728Z,99.90
2022-08-18T02:35:27.170Z,99.90
2022-08-18T02:37:57.167Z,99.90
2022-08-18T02:40:34.059Z,99.90
2022-08-18T02:43:10.126Z,99.90
2022-08-18T02:45:40.876Z,99.90
2022-08-18T02:48:10.841Z,99.90
2022-08-18T02:50:47.668Z,99.90
2022-08-18T02:53:23.741Z,99.90
2022-08-18T02:55:56.305Z,99.90
2022-08-18T02:58:30.439Z,99.90
2022-08-18T03:01:03.216Z,99.90
2022-08-18T03:03:33.167Z,99.90
2022-08-18T03:06:03.340Z,99.90
2022-08-18T03:08:33.534Z,99.90
2022-08-18T03:11:06.130Z,99.90
2022-08-18T03:13:36.175Z,99.90
2022-08-18T03:16:07.513Z,99.90
2022-08-18T03:18:37.842Z,99.90
2022-08-18T03:21:10.363Z,99.90
2022-08-18T03:23:41.796Z,99.90
2022-08-18T03:26:19.358Z,99.90
2022-08-18T03:28:52.563Z,99.90
2022-08-18T03:31:28.103Z,99.90
2022-08-18T03:33:59.886Z,99.90
2022-08-18T03:36:36.922Z,99.90
2022-08-18T03:39:10.869Z,99.90
2022-08-18T03:41:58.107Z,99.90
2022-08-18T03:44:31.325Z,99.90
2022-08-18T03:47:03.802Z,99.90
2022-08-18T03:49:34.287Z,99.90
2022-08-18T03:52:05.584Z,99.90
2022-08-18T03:54:36.396Z,99.90
2022-08-18T03:57:12.646Z,99.90
2022-08-18T03:59:44.231Z,99.90
2022-08-18T04:02:15.482Z,99.90
2022-08-18T04:04:45.468Z,99.90
2022-08-18T04:07:17.641Z,99.90
2022-08-18T04:09:48.112Z,99.90
2022-08-18T04:12:20.631Z,99.90
2022-08-18T04:14:53.562Z,99.90
2022-08-18T04:17:26.297Z,99.90
2022-08-18T04:19:57.766Z,99.90
2022-08-18T04:22:28.528Z,99.90
2022-08-18T04:24:58.513Z,99.90
2022-08-18T04:27:32.526Z,99.90
2022-08-18T04:30:03.511Z,99.90
2022-08-18T04:32:34.326Z,99.90
2022-08-18T04:35:04.630Z,99.90
2022-08-18T04:37:38.123Z,99.90
2022-08-18T04:40:14.756Z,99.90
2022-08-18T04:42:48.571Z,99.90
2022-08-18T04:45:18.760Z,99.90
2022-08-18T04:47:48.813Z,99.90
2022-08-18T04:50:19.044Z,99.90
2022-08-18T04:53:01.566Z,99.90
2022-08-18T04:55:31.933Z,99.90
2022-08-18T04:58:04.584Z,99.90
2022-08-18T05:00:34.576Z,99.90
2022-08-18T05:03:04.528Z,99.90
2022-08-18T05:05:34.528Z,99.90
2022-08-18T05:08:04.530Z,99.90
2022-08-18T05:10:34.741Z,99.90
2022-08-18T05:13:07.315Z,99.90
2022-08-18T05:15:59.311Z,99.90
2022-08-18T05:18:28.198Z,99.90
2022-08-18T05:21:01.312Z,99.90
2022-08-18T05:23:32.256Z,99.90
2022-08-18T05:26:04.905Z,99.90
2022-08-18T05:28:37.854Z,99.90
2022-08-18T05:31:13.970Z,99.90
2022-08-18T05:33:44.974Z,99.90
2022-08-18T05:36:46.670Z,99.90
2022-08-18T05:39:26.760Z,99.90
2022-08-18T05:42:06.399Z,99.90
2022-08-18T05:44:45.076Z,99.90
2022-08-18T05:47:19.829Z,99.90
2022-08-18T05:49:51.821Z,99.90
2022-08-18T05:52:30.108Z,99.90
2022-08-18T05:55:20.099Z,99.90
2022-08-18T05:57:56.537Z,99.90
2022-08-18T06:00:31.337Z,99.90
2022-08-18T06:03:09.921Z,99.90
2022-08-18T06:05:52.505Z,99.90
2022-08-18T06:08:28.241Z,99.90
2022-08-18T06:10:58.464Z,99.90
2022-08-18T06:13:28.565Z,99.90
2022-08-18T06:16:12.518Z,99.90
2022-08-18T06:18:53.325Z,99.90
2022-08-18T06:21:46.106Z,99.90
2022-08-18T06:24:31.527Z,99.90
2022-08-18T06:27:16.213Z,99.90
2022-08-18T06:30:10.991Z,99.90
2022-08-18T06:33:13.167Z,99.90
2022-08-18T06:35:52.206Z,99.90
2022-08-18T06:38:45.759Z,99.90
2022-08-18T06:41:41.524Z,99.90
2022-08-18T06:44:19.056Z,99.90
2022-08-18T06:46:56.948Z,99.90
2022-08-18T06:49:41.757Z,99.90
2022-08-18T06:52:24.678Z,99.90
2022-08-18T06:54:56.593Z,99.90
2022-08-18T06:57:34.962Z,99.90
2022-08-18T07:00:13.141Z,99.90
2022-08-18T07:02:54.276Z,99.90
2022-08-18T07:05:31.722Z,99.90
2022-08-18T07:08:18.810Z,99.90
2022-08-18T07:10:53.459Z,99.90
2022-08-18T07:13:31.602Z,99.90
2022-08-18T07:16:40.306Z,99.90
2022-08-18T07:19:15.772Z,99.90
2022-08-18T07:21:49.979Z,99.90
2022-08-18T07:24:30.531Z,99.90
2022-08-18T07:27:04.179Z,99.90
2022-08-18T07:29:37.649Z,99.90
2022-08-18T07:32:21.085Z,99.90
2022-08-18T07:34:58.309Z,99.90
2022-08-18T07:37:37.928Z,99.90
2022-08-18T07:40:23.740Z,99.90
2022-08-18T07:43:02.558Z,99.90
2022-08-18T07:45:44.039Z,99.90
2022-08-18T07:48:37.477Z,99.90
2022-08-18T07:51:23.643Z,99.90
2022-08-18T07:54:25.349Z,99.90
2022-08-18T07:57:19.703Z,99.90
2022-08-18T08:00:00.657Z,99.90
2022-08-18T08:02:50.492Z,99.90
2022-08-18T08:05:42.233Z,99.90
2022-08-18T08:08:25.843Z,99.90
2022-08-18T08:11:16.903Z,99.90
2022-08-18T08:14:04.257Z,99.90
2022-08-18T08:16:47.245Z,99.90
2022-08-18T08:20:01.299Z,99.90
2022-08-18T08:22:41.245Z,99.90
2022-08-18T08:25:45.054Z,99.90
2022-08-18T08:28:31.337Z,99.90
2022-08-18T08:31:35.435Z,99.90
2022-08-18T08:34:15.513Z,99.90
2022-08-18T08:36:50.343Z,99.90
2022-08-18T08:39:38.509Z,99.90
2022-08-18T08:42:30.345Z,99.90
2022-08-18T08:45:12.811Z,99.90
2022-08-18T08:47:58.309Z,99.90
2022-08-18T08:50:39.016Z,99.90
2022-08-18T08:53:20.281Z,99.90
2022-08-18T08:56:00.110Z,99.90
2022-08-18T08:58:42.777Z,99.90
2022-08-18T09:01:37.986Z,99.90
2022-08-18T09:04:30.451Z,99.90
2022-08-18T09:07:21.841Z,99.90
2022-08-18T09:10:27.974Z,99.90
2022-08-18T09:13:19.630Z,99.90
2022-08-18T09:16:23.295Z,99.90
2022-08-18T09:19:19.707Z,99.90
2022-08-18T09:22:01.505Z,99.90
2022-08-18T09:24:42.110Z,99.90
2022-08-18T09:27:29.559Z,99.90
2022-08-18T09:30:03.554Z,99.90
2022-08-18T09:32:55.378Z,99.90
2022-08-18T09:35:52.005Z,99.90
2022-08-18T10:00:24.418Z,95.50
2022-08-18T10:03:31.048Z,97.30
2022-08-18T10:06:23.917Z,99.10
2022-08-18T10:09:36.522Z,98.50
2022-08-18T10:12:40.759Z,99.10
2022-08-18T10:15:39.439Z,97.10
2022-08-18T10:18:39.545Z,95.70
2022-08-18T10:21:31.311Z,94.50
2022-08-18T10:24:36.950Z,95.00
2022-08-18T10:27:14.410Z,94.00
2022-08-18T10:30:00.257Z,92.90
2022-08-18T10:32:54.156Z,92.80
2022-08-18T10:39:07.022Z,95.30
2022-08-18T10:41:48.198Z,95.20
2022-08-18T10:47:25.056Z,93.10
2022-08-18T10:50:11.905Z,93.90
2022-08-18T10:53:24.798Z,93.00
2022-08-18T10:56:06.221Z,92.20
2022-08-18T10:59:28.787Z,94.20
2022-08-18T11:02:26.757Z,93.30
2022-08-18T11:04:59.976Z,91.60
2022-08-18T11:07:35.541Z,91.80
2022-08-18T11:10:30.595Z,90.70
2022-08-18T11:13:14.843Z,90.50
2022-08-18T11:16:03.051Z,90.90
2022-08-18T11:18:43.289Z,90.40
2022-08-18T11:21:33.103Z,90.10
2022-08-18T11:24:14.548Z,91.00
2022-08-18T11:26:53.118Z,92.40
2022-08-18T11:29:35.188Z,93.20
2022-08-18T11:32:11.910Z,92.30
2022-08-18T11:34:53.121Z,92.00
2022-08-18T11:37:48.779Z,92.20
2022-08-18T11:41:08.815Z,92.90
2022-08-18T11:43:41.282Z,91.80
2022-08-18T11:46:32.190Z,90.10
2022-08-18T11:49:16.463Z,88.30
2022-08-18T11:52:03.253Z,86.50
2022-08-18T11:54:50.267Z,85.40
2022-08-18T11:57:46.785Z,84.60
2022-08-18T12:00:57.321Z,87.50
2022-08-18T12:03:49.122Z,89.90
2022-08-18T12:06:29.923Z,90.00
2022-08-18T12:09:05.537Z,91.80
2022-08-18T12:11:42.726Z,91.70
2022-08-18T12:14:29.753Z,91.70
2022-08-18T12:17:03.371Z,92.00
2022-08-18T12:19:36.415Z,91.90
2022-08-18T12:22:21.170Z,92.70
2022-08-18T12:24:52.257Z,91.70
2022-08-18T12:27:26.061Z,90.70
2022-08-18T12:30:03.765Z,90.00
2022-08-18T12:32:47.042Z,90.20
2022-08-18T12:35:23.039Z,90.70
2022-08-18T12:38:00.432Z,91.60
2022-08-18T12:40:47.202Z,93.00
2022-08-18T12:43:17.422Z,93.10
2022-08-18T12:45:47.758Z,94.10
2022-08-18T12:48:17.879Z,94.00
2022-08-18T12:50:58.552Z,94.70
2022-08-18T12:53:58.230Z,94.40
2022-08-18T12:56:26.316Z,95.00
2022-08-18T12:58:56.951Z,95.10
2022-08-18T13:01:28.512Z,94.80
2022-08-18T13:04:12.495Z,95.00
2022-08-18T13:06:59.565Z,94.40
2022-08-18T13:09:34.593Z,94.50
2022-08-18T13:12:19.809Z,94.30
2022-08-18T13:14:51.661Z,93.40
2022-08-18T13:17:30.432Z,93.10
2022-08-18T13:20:13.552Z,92.10
2022-08-18T13:22:46.901Z,90.60
2022-08-18T13:25:28.882Z,89.10
2022-08-18T13:28:03.352Z,87.40
2022-08-18T13:30:35.607Z,86.30
2022-08-18T13:33:34.457Z,85.00
2022-08-18T13:35:58.023Z,86.60
2022-08-18T13:38:31.285Z,84.30
2022-08-18T13:41:06.260Z,83.70
2022-08-18T13:43:43.191Z,82.80
2022-08-18T13:46:17.333Z,83.40
2022-08-18T13:48:48.472Z,83.90
2022-08-18T13:51:26.999Z,83.10
2022-08-18T13:54:26.581Z,84.60
2022-08-18T13:56:51.771Z,85.00
2022-08-18T13:59:23.815Z,83.80
2022-08-18T14:01:54.918Z,84.90
2022-08-18T14:04:27.964Z,85.10
2022-08-18T14:07:03.291Z,86.70
2022-08-18T14:09:39.990Z,87.40
2022-08-18T14:12:22.740Z,87.50
2022-08-18T14:14:56.879Z,88.40
2022-08-18T14:17:28.699Z,88.00
2022-08-18T14:20:15.302Z,87.40
2022-08-18T14:23:06.584Z,86.90
2022-08-18T14:25:52.254Z,85.70
2022-08-18T14:28:24.908Z,86.10
2022-08-18T14:30:56.105Z,87.10
2022-08-18T14:33:51.146Z,86.50
2022-08-18T14:36:29.806Z,86.30
2022-08-18T14:39:00.819Z,84.40
2022-08-18T14:41:35.621Z,84.70
2022-08-18T14:44:15.345Z,84.10
2022-08-18T14:46:53.914Z,83.70
2022-08-18T14:49:28.315Z,83.10
2022-08-18T14:52:00.311Z,82.60
2022-08-18T14:54:32.733Z,83.10
2022-08-18T14:57:11.393Z,83.50
2022-08-18T14:59:41.806Z,84.70
2022-08-18T15:02:15.248Z,85.20
2022-08-18T15:04:55.943Z,85.50
2022-08-18T15:07:28.327Z,86.20
2022-08-18T15:10:15.684Z,87.00
2022-08-18T15:12:49.409Z,86.50
2022-08-18T15:15:22.646Z,86.50
2022-08-18T15:17:53.338Z,86.90
2022-08-18T15:20:29.754Z,86.10
2022-08-18T15:23:17.264Z,86.50
2022-08-18T15:25:50.992Z,87.00
2022-08-18T15:28:27.529Z,87.60
2022-08-18T15:33:50.083Z,88.40
2022-08-18T15:36:29.246Z,88.50
2022-08-18T15:38:59.979Z,88.50
2022-08-18T15:41:35.717Z,89.50
2022-08-18T15:44:20.853Z,89.60
2022-08-18T15:46:53.600Z,89.50
2022-08-18T15:49:24.402Z,90.10
2022-08-18T15:51:54.527Z,90.50
2022-08-18T15:54:25.324Z,91.00
2022-08-18T15:56:58.304Z,91.30
2022-08-18T15:59:33.194Z,91.90
2022-08-18T16:02:11.852Z,92.20
2022-08-18T16:04:43.085Z,92.80
2022-08-18T16:07:18.051Z,92.90
2022-08-18T16:10:08.393Z,92.90
2022-08-18T16:12:45.665Z,92.60
2022-08-18T16:15:21.542Z,92.70
2022-08-18T16:17:53.520Z,92.90
2022-08-18T16:20:26.330Z,93.20
2022-08-18T16:22:57.719Z,93.00
2022-08-18T16:25:29.101Z,93.10
2022-08-18T16:28:02.287Z,93.40
2022-08-18T16:30:35.369Z,93.60
2022-08-18T16:33:08.546Z,93.70
2022-08-18T16:35:39.921Z,93.70
2022-08-18T16:38:15.379Z,93.70
2022-08-18T16:40:45.418Z,93.90
2022-08-18T16:43:15.742Z,94.30
2022-08-18T16:45:48.691Z,94.40
2022-08-18T16:48:21.968Z,94.60
2022-08-18T16:50:52.725Z,94.90
2022-08-18T16:53:22.793Z,94.80
2022-08-18T16:55:53.208Z,95.00
2022-08-18T16:58:35.704Z,95.40
2022-08-18T17:01:21.103Z,95.30
2022-08-18T17:04:13.529Z,95.60
2022-08-18T17:06:47.636Z,96.20
2022-08-18T17:09:19.094Z,96.20
2022-08-18T17:11:51.954Z,96.10
2022-08-18T17:14:23.757Z,96.30
2022-08-18T17:16:58.648Z,96.60
2022-08-18T17:19:34.593Z,96.70
2022-08-18T17:22:06.693Z,96.60
2022-08-18T17:24:37.705Z,97.10
2022-08-18T17:27:26.497Z,98.10
2022-08-18T17:30:07.657Z,99.40
2022-08-18T17:32:49.313Z,99.90
2022-08-18T17:35:28.807Z,99.90
2022-08-18T17:38:04.871Z,99.90
2022-08-18T17:40:42.868Z,99.90
2022-08-18T17:43:18.290Z,99.90
2022-08-18T17:45:56.123Z,99.90
2022-08-18T17:48:35.226Z,99.90
2022-08-18T17:51:25.875Z,99.90
2022-08-18T17:54:01.360Z,99.90
2022-08-18T17:56:40.859Z,99.90
2022-08-18T17:59:46.063Z,99.90
2022-08-18T18:02:28.741Z,99.90
2022-08-18T18:05:05.447Z,99.90
2022-08-18T18:07:41.624Z,99.90
2022-08-18T18:10:16.281Z,99.90
2022-08-18T18:12:46.786Z,99.90
2022-08-18T18:15:17.463Z,99.90
2022-08-18T18:17:48.731Z,99.90
2022-08-18T18:20:42.031Z,99.90
2022-08-18T18:23:20.586Z,99.90
2022-08-18T18:25:52.025Z,99.90
2022-08-18T18:28:33.289Z,99.90
2022-08-18T18:31:25.125Z,99.90
2022-08-18T18:34:03.225Z,99.90
2022-08-18T18:36:45.333Z,99.90
2022-08-18T18:39:33.210Z,99.90
2022-08-18T18:42:19.461Z,99.90
2022-08-18T18:44:56.529Z,99.90
2022-08-18T18:47:50.468Z,99.90
2022-08-18T18:50:38.273Z,99.90
2022-08-18T18:53:44.969Z,99.90
2022-08-18T18:56:31.873Z,99.90
2022-08-18T18:59:35.231Z,99.90
2022-08-18T19:02:33.660Z,99.90
2022-08-18T19:05:20.374Z,99.90
2022-08-18T19:08:13.217Z,99.90
2022-08-18T19:10:59.535Z,99.90
2022-08-18T19:13:35.566Z,99.90
2022-08-18T19:16:23.862Z,99.90
2022-08-18T19:19:35.752Z,99.90
2022-08-18T19:22:06.716Z,99.90
2022-08-18T19:24:48.110Z,99.90
2022-08-18T19:27:32.017Z,99.90
2022-08-18T19:30:09.696Z,99.90
2022-08-18T19:32:47.724Z,99.90
2022-08-18T19:35:23.126Z,99.90
2022-08-18T19:38:06.239Z,99.90
2022-08-18T19:40:48.627Z,99.90
2022-08-18T19:43:30.061Z,99.90
2022-08-18T19:46:13.379Z,99.90
2022-08-18T19:48:55.081Z,99.90
2022-08-18T19:51:35.257Z,99.90
2022-08-18T19:54:40.435Z,99.90
2022-08-18T19:57:37.706Z,99.90
2022-08-18T20:00:42.136Z,99.90
2022-08-18T20:04:01.729Z,99.90
2022-08-18T20:07:22.559Z,99.90
2022-08-18T20:10:24.547Z,99.90
2022-08-18T20:13:19.385Z,99.90
2022-08-18T20:16:44.011Z,99.90
2022-08-18T20:19:48.245Z,99.90
2022-08-18T20:22:42.394Z,99.90
2022-08-18T20:25:47.091Z,99.90
2022-08-18T20:28:36.414Z,99.90
2022-08-18T20:31:18.809Z,99.90
2022-08-18T20:34:14.014Z,99.90
2022-08-18T20:36:47.005Z,99.90
2022-08-18T20:39:52.515Z,99.90
2022-08-18T20:42:56.371Z,99.90
2022-08-18T20:45:45.822Z,99.90
2022-08-18T20:48:38.038Z,99.90
2022-08-18T20:51:14.062Z,99.90
2022-08-18T20:54:13.595Z,99.90
2022-08-18T20:56:52.419Z,99.90
2022-08-18T20:59:27.348Z,99.90
2022-08-18T21:02:01.482Z,99.90
2022-08-18T21:04:51.111Z,99.90
2022-08-18T21:07:36.190Z,99.90
2022-08-18T21:10:16.637Z,99.90
2022-08-18T21:12:54.763Z,99.90
2022-08-18T21:15:29.057Z,99.90
2022-08-18T21:18:05.279Z,99.90
2022-08-18T21:20:38.412Z,99.90
2022-08-18T21:23:15.761Z,99.90
2022-08-18T21:25:56.723Z,99.90
2022-08-18T21:28:31.414Z,99.90
2022-08-18T21:31:43.259Z,99.90
2022-08-18T21:33:58.251Z,99.90
2022-08-18T21:36:32.790Z,99.90
2022-08-18T21:39:11.174Z,99.90
2022-08-18T21:41:48.946Z,99.90
2022-08-18T21:44:24.330Z,99.90
2022-08-18T21:47:09.633Z,99.90
2022-08-18T21:49:39.617Z,99.90
2022-08-18T21:52:12.213Z,99.90
2022-08-18T21:54:46.713Z,99.90
2022-08-18T21:57:27.414Z,99.90
2022-08-18T22:00:20.406Z,99.90
2022-08-18T22:02:52.220Z,99.90
2022-08-18T22:05:58.753Z,99.90
2022-08-18T22:08:29.179Z,99.90
2022-08-18T22:12:01.938Z,99.90
2022-08-18T22:14:54.306Z,99.90
2022-08-18T22:17:34.458Z,99.90
2022-08-18T22:20:36.009Z,99.90
2022-08-18T22:23:34.850Z,99.90
2022-08-18T22:26:26.185Z,99.90
2022-08-18T22:29:13.488Z,99.90
2022-08-18T22:31:46.870Z,99.90
2022-08-18T22:34:27.016Z,99.90
2022-08-18T22:37:02.221Z,99.90
2022-08-18T22:39:36.491Z,99.90
2022-08-18T22:42:10.837Z,99.90
2022-08-18T22:44:41.131Z,99.90
2022-08-18T22:47:11.898Z,99.90
2022-08-18T22:49:45.214Z,99.90
2022-08-18T22:52:22.422Z,99.90
2022-08-18T22:55:05.286Z,99.90
2022-08-18T22:57:40.947Z,99.90
2022-08-18T23:00:18.137Z,99.90
2022-08-18T23:02:48.889Z,99.90
2022-08-18T23:05:19.027Z,99.90
2022-08-18T23:07:49.022Z,99.90
2022-08-18T23:10:19.537Z,99.90
2022-08-18T23:12:52.879Z,99.90
2022-08-18T23:15:38.816Z,99.90
2022-08-18T23:18:08.955Z,99.90
2022-08-18T23:20:39.663Z,99.90
2022-08-18T23:23:11.284Z,99.90
2022-08-18T23:25:42.250Z,99.90
2022-08-18T23:28:15.779Z,99.90
2022-08-18T23:30:46.475Z,99.90
2022-08-18T23:33:19.464Z,99.90
2022-08-18T23:35:50.379Z,99.90
2022-08-18T23:38:20.408Z,99.90
2022-08-18T23:40:55.645Z,99.90
2022-08-18T23:43:29.796Z,99.90
2022-08-18T23:45:59.941Z,99.90
2022-08-18T23:48:29.946Z,99.90
2022-08-18T23:51:03.107Z,99.90
2022-08-18T23:53:34.109Z,99.90
2022-08-18T23:56:06.141Z,99.90
2022-08-18T23:58:38.654Z,99.90
